createdAt,value
2022-10-11T00:02:08.492Z,23.85
2022-10-11T00:04:35.257Z,18.40
2022-10-11T00:07:02.197Z,22.13
2022-10-11T00:09:28.936Z,22.25
2022-10-11T00:11:56.814Z,17.25
2022-10-11T00:14:26.198Z,18.98
2022-10-11T00:16:54.098Z,21.07
2022-10-11T00:19:21.578Z,19.40
2022-10-11T00:21:48.589Z,19.27
2022-10-11T00:24:15.599Z,15.30
2022-10-11T00:26:46.540Z,18.77
2022-10-11T00:29:14.390Z,16.70
2022-10-11T00:31:41.320Z,17.52
2022-10-11T00:34:08.633Z,16.73
2022-10-11T00:36:35.531Z,15.57
2022-10-11T00:39:02.543Z,18.88
2022-10-11T00:41:29.367Z,17.83
2022-10-11T00:44:21.008Z,19.98
2022-10-11T00:47:18.861Z,19.23
2022-10-11T00:49:54.291Z,17.80
2022-10-11T00:52:29.246Z,14.75
2022-10-11T00:54:58.384Z,15.73
2022-10-11T00:57:28.036Z,19.13
2022-10-11T00:59:56.826Z,15.55
2022-10-11T01:02:24.328Z,17.48
2022-10-11T01:05:05.692Z,14.43
2022-10-11T01:07:39.376Z,11.60
2022-10-11T01:10:06.283Z,13.85
2022-10-11T01:12:33.597Z,11.80
2022-10-11T01:15:26.868Z,13.63
2022-10-11T01:18:01.234Z,12.57
2022-10-11T01:20:58.122Z,11.07
2022-10-11T01:24:17.791Z,11.95
2022-10-11T01:27:31.213Z,11.18
2022-10-11T01:30:42.334Z,10.13
2022-10-11T01:33:20.947Z,11.20
2022-10-11T01:35:53.728Z,11.50
2022-10-11T01:39:07.890Z,13.93
2022-10-11T01:41:42.842Z,14.75
2022-10-11T01:44:12.541Z,13.90
2022-10-11T01:46:39.524Z,14.95
2022-10-11T01:49:06.552Z,14.27
2022-10-11T01:51:37.877Z,14.82
2022-10-11T01:54:14.621Z,15.60
2022-10-11T01:57:22.746Z,16.02
2022-10-11T02:00:13.934Z,16.45
2022-10-11T02:02:47.348Z,16.37
2022-10-11T02:05:34.265Z,13.18
2022-10-11T02:08:52.442Z,15.63
2022-10-11T02:11:26.928Z,18.95
2022-10-11T02:14:01.056Z,15.32
2022-10-11T02:16:34.255Z,13.87
2022-10-11T02:19:04.487Z,15.70
2022-10-11T02:21:34.607Z,17.23
2022-10-11T02:24:05.970Z,14.35
2022-10-11T02:26:34.517Z,13.70
2022-10-11T02:29:08.646Z,12.07
2022-10-11T02:31:36.516Z,12.25
2022-10-11T02:34:09.893Z,12.20
2022-10-11T02:36:47.392Z,13.43
2022-10-11T02:39:22.255Z,14.63
2022-10-11T02:41:52.307Z,14.03
2022-10-11T02:44:32.430Z,15.02
2022-10-11T02:47:01.006Z,17.25
2022-10-11T02:49:30.024Z,16.50
2022-10-11T02:51:58.582Z,15.43
2022-10-11T02:54:26.762Z,13.27
2022-10-11T02:56:53.643Z,12.02
2022-10-11T02:59:20.470Z,13.93
2022-10-11T03:01:47.364Z,13.60
2022-10-11T03:04:14.324Z,14.07
2022-10-11T03:06:41.156Z,13.53
2022-10-11T03:09:08.018Z,12.02
2022-10-11T03:11:34.870Z,15.55
2022-10-11T03:14:01.711Z,14.30
2022-10-11T03:16:28.608Z,14.85
2022-10-11T03:18:55.399Z,13.70
2022-10-11T03:21:22.175Z,14.80
2022-10-11T03:23:49.589Z,18.77
2022-10-11T03:26:16.445Z,19.67
2022-10-11T03:28:43.451Z,15.82
2022-10-11T03:31:10.255Z,17.03
2022-10-11T03:33:37.008Z,14.75
2022-10-11T03:36:04.239Z,20.15
2022-10-11T03:38:31.318Z,15.90
2022-10-11T03:40:58.111Z,17.35
2022-10-11T03:43:25.083Z,17.93
2022-10-11T03:45:51.901Z,18.60
2022-10-11T03:48:18.785Z,13.73
2022-10-11T03:50:45.667Z,15.77
2022-10-11T03:53:12.509Z,15.43
2022-10-11T03:55:40.089Z,13.90
2022-10-11T03:58:08.151Z,13.95
2022-10-11T04:00:35.706Z,17.17
2022-10-11T04:03:02.665Z,17.77
2022-10-11T04:05:30.381Z,20.38
2022-10-11T04:07:57.264Z,17.83
2022-10-11T04:10:24.126Z,18.20
2022-10-11T04:12:51.064Z,17.02
2022-10-11T04:15:17.838Z,16.95
2022-10-11T04:17:46.899Z,11.70
2022-10-11T04:20:14.068Z,16.60
2022-10-11T04:22:40.874Z,19.27
2022-10-11T04:25:08.464Z,16.30
2022-10-11T04:27:35.713Z,16.67
2022-10-11T04:30:02.768Z,17.55
2022-10-11T04:32:29.535Z,17.23
2022-10-11T04:34:56.352Z,16.02
2022-10-11T04:40:24.027Z,16.90
2022-10-11T04:42:50.865Z,17.73
2022-10-11T04:45:17.703Z,19.33
2022-10-11T04:47:49.073Z,17.63
2022-10-11T04:50:16.208Z,15.93
2022-10-11T04:52:42.975Z,18.02
2022-10-11T04:55:10.837Z,16.52
2022-10-11T04:57:37.646Z,18.53
2022-10-11T05:00:05.434Z,21.02
2022-10-11T05:02:32.431Z,18.60
2022-10-11T05:04:59.435Z,20.90
2022-10-11T05:07:26.180Z,16.08
2022-10-11T05:09:53.010Z,17.73
2022-10-11T05:12:19.852Z,20.15
2022-10-11T05:14:49.747Z,20.05
2022-10-11T05:17:16.714Z,20.25
2022-10-11T05:19:43.537Z,18.52
2022-10-11T05:22:10.495Z,19.83
2022-10-11T05:24:37.551Z,19.33
2022-10-11T05:27:04.333Z,20.08
2022-10-11T05:29:31.060Z,20.20
2022-10-11T05:31:57.880Z,19.92
2022-10-11T05:34:24.700Z,20.23
2022-10-11T05:36:51.522Z,19.15
2022-10-11T05:39:18.396Z,20.58
2022-10-11T05:41:45.272Z,21.05
2022-10-11T05:44:12.417Z,20.65
2022-10-11T05:46:39.439Z,19.17
2022-10-11T05:49:06.307Z,21.10
2022-10-11T05:51:33.142Z,24.08
2022-10-11T05:54:00.256Z,21.45
2022-10-11T05:56:27.125Z,26.15
2022-10-11T05:58:54.956Z,26.20
2022-10-11T06:01:27.703Z,27.40
2022-10-11T06:03:54.627Z,27.98
2022-10-11T06:06:21.961Z,31.02
2022-10-11T06:08:48.916Z,26.10
2022-10-11T06:11:21.882Z,22.40
2022-10-11T06:13:48.950Z,25.75
2022-10-11T06:16:15.881Z,27.60
2022-10-11T06:18:42.730Z,26.52
2022-10-11T06:21:09.680Z,28.30
2022-10-11T06:23:36.529Z,28.43
2022-10-11T06:26:08.570Z,26.23
2022-10-11T06:28:37.138Z,25.50
2022-10-11T06:31:06.581Z,25.08
2022-10-11T06:33:34.266Z,21.85
2022-10-11T06:36:08.329Z,20.20
2022-10-11T06:38:35.344Z,28.83
2022-10-11T06:41:19.320Z,28.15
2022-10-11T06:43:46.374Z,23.90
2022-10-11T06:46:13.205Z,22.88
2022-10-11T06:48:42.215Z,23.37
2022-10-11T06:51:10.079Z,28.55
2022-10-11T06:53:37.052Z,25.45
2022-10-11T06:56:06.204Z,21.92
2022-10-11T06:58:33.875Z,13.15
2022-10-11T07:01:13.190Z,23.23
2022-10-11T07:03:40.101Z,13.75
2022-10-11T07:06:26.805Z,14.10
2022-10-11T07:08:53.918Z,18.17
2022-10-11T07:11:27.376Z,15.55
2022-10-11T07:13:57.031Z,28.97
2022-10-11T07:16:24.711Z,13.15
2022-10-11T07:19:00.186Z,14.27
2022-10-11T07:21:28.817Z,16.00
2022-10-11T07:23:55.704Z,11.65
2022-10-11T07:26:22.843Z,15.93
2022-10-11T07:28:49.975Z,13.05
2022-10-11T07:31:24.911Z,12.88
2022-10-11T07:33:51.728Z,14.82
2022-10-11T07:36:18.673Z,15.90
2022-10-11T07:38:47.047Z,20.97
2022-10-11T07:41:14.356Z,15.00
2022-10-11T07:43:41.647Z,14.85
2022-10-11T07:46:09.165Z,12.10
2022-10-11T07:48:36.942Z,12.68
2022-10-11T07:51:29.946Z,12.53
2022-10-11T07:53:57.259Z,14.27
2022-10-11T07:56:28.902Z,13.63
2022-10-11T07:58:58.885Z,12.52
2022-10-11T08:01:28.328Z,12.00
2022-10-11T08:03:55.633Z,11.87
2022-10-11T08:06:24.308Z,16.98
2022-10-11T08:08:51.104Z,24.33
2022-10-11T08:11:27.090Z,17.33
2022-10-11T08:13:54.735Z,10.75
2022-10-11T08:16:22.141Z,12.27
2022-10-11T08:18:48.912Z,12.32
2022-10-11T08:21:17.347Z,10.10
2022-10-11T08:23:44.826Z,13.07
2022-10-11T08:26:11.938Z,16.15
2022-10-11T08:28:38.919Z,16.27
2022-10-11T08:31:06.286Z,15.40
2022-10-11T08:33:33.264Z,14.23
2022-10-11T08:36:04.927Z,11.27
2022-10-11T08:38:32.412Z,11.75
2022-10-11T08:41:01.017Z,11.13
2022-10-11T08:43:51.528Z,12.52
2022-10-11T08:46:26.182Z,11.48
2022-10-11T08:48:53.340Z,10.73
2022-10-11T08:51:31.645Z,10.40
2022-10-11T08:54:07.340Z,11.70
2022-10-11T08:56:37.282Z,11.77
2022-10-11T08:59:13.030Z,11.38
2022-10-11T09:02:02.800Z,10.85
2022-10-11T09:04:29.704Z,11.32
2022-10-11T09:07:09.344Z,12.33
2022-10-11T09:09:59.018Z,14.18
2022-10-11T09:12:58.117Z,12.45
2022-10-11T09:15:42.396Z,11.63
2022-10-11T09:18:27.399Z,12.60
2022-10-11T09:21:10.075Z,11.07
2022-10-11T09:24:02.305Z,12.05
2022-10-11T09:26:38.416Z,12.23
2022-10-11T09:29:27.996Z,11.50
2022-10-11T09:31:57.277Z,11.48
2022-10-11T09:34:29.980Z,12.17
2022-10-11T09:37:18.115Z,11.40
2022-10-11T09:40:01.993Z,11.10
2022-10-11T09:42:28.906Z,13.13
2022-10-11T09:44:58.007Z,13.73
2022-10-11T09:47:27.133Z,14.63
2022-10-11T09:50:00.762Z,13.25
2022-10-11T09:52:27.538Z,12.85
2022-10-11T09:54:59.885Z,10.93
2022-10-11T09:57:36.463Z,13.10
2022-10-11T10:00:12.123Z,12.57
2022-10-11T10:02:47.466Z,12.98
2022-10-11T10:05:19.908Z,15.63
2022-10-11T10:08:21.905Z,14.07
2022-10-11T10:10:50.116Z,12.68
2022-10-11T10:13:21.527Z,12.67
2022-10-11T10:15:51.869Z,13.32
2022-10-11T10:18:29.500Z,15.80
2022-10-11T10:20:58.538Z,12.27
2022-10-11T10:23:39.635Z,10.25
2022-10-11T10:26:25.345Z,11.43
2022-10-11T10:29:11.000Z,14.13
2022-10-11T10:32:13.918Z,15.75
2022-10-11T10:35:06.536Z,11.82
2022-10-11T10:37:40.920Z,9.82
2022-10-11T10:40:17.576Z,10.33
2022-10-11T10:42:44.461Z,9.15
2022-10-11T10:45:20.869Z,11.38
2022-10-11T10:48:23.196Z,9.88
2022-10-11T10:50:56.017Z,13.35
2022-10-11T10:53:25.594Z,13.10
2022-10-11T10:56:00.840Z,12.60
2022-10-11T10:59:01.472Z,11.05
2022-10-11T11:01:32.325Z,12.77
2022-10-11T11:04:24.350Z,11.07
2022-10-11T11:06:51.125Z,11.93
2022-10-11T11:09:21.025Z,10.57
2022-10-11T11:12:06.750Z,11.27
2022-10-11T11:14:58.393Z,10.02
2022-10-11T11:17:46.959Z,7.05
2022-10-11T11:20:42.724Z,9.87
2022-10-11T11:23:23.759Z,9.85
2022-10-11T11:26:10.405Z,13.38
2022-10-11T11:29:08.174Z,10.30
2022-10-11T11:32:12.582Z,10.68
2022-10-11T11:34:52.019Z,10.40
2022-10-11T11:37:27.835Z,11.50
2022-10-11T11:40:00.435Z,12.02
2022-10-11T11:42:35.787Z,12.07
2022-10-11T11:45:23.897Z,9.00
2022-10-11T11:48:06.870Z,9.33
2022-10-11T11:50:46.704Z,8.95
2022-10-11T11:53:22.165Z,8.07
2022-10-11T11:56:01.870Z,9.70
2022-10-11T11:58:39.591Z,7.45
2022-10-11T12:01:32.449Z,7.57
2022-10-11T12:04:05.225Z,9.10
2022-10-11T12:06:47.760Z,9.15
2022-10-11T12:09:23.471Z,13.07
2022-10-11T12:11:54.509Z,7.90
2022-10-11T12:14:28.132Z,7.43
2022-10-11T12:17:17.441Z,7.55
2022-10-11T12:20:14.341Z,7.88
2022-10-11T12:22:54.311Z,6.75
2022-10-11T12:25:33.218Z,6.32
2022-10-11T12:28:02.774Z,7.80
2022-10-11T12:30:44.602Z,8.15
2022-10-11T12:33:46.174Z,7.70
2022-10-11T12:36:28.322Z,9.43
2022-10-11T12:39:19.957Z,7.35
2022-10-11T12:41:51.958Z,7.40
2022-10-11T12:44:18.668Z,7.28
2022-10-11T12:46:51.169Z,8.02
2022-10-11T12:49:26.514Z,8.88
2022-10-11T12:52:01.034Z,8.75
2022-10-11T12:54:37.389Z,8.47
2022-10-11T12:57:46.360Z,7.32
2022-10-11T13:00:42.099Z,7.75
2022-10-11T13:03:32.914Z,8.88
2022-10-11T13:06:04.901Z,9.32
2022-10-11T13:08:34.460Z,8.37
2022-10-11T13:11:10.982Z,10.63
2022-10-11T13:13:44.232Z,9.43
2022-10-11T13:16:18.917Z,9.60
2022-10-11T13:18:48.146Z,9.27
2022-10-11T13:21:31.803Z,8.90
2022-10-11T13:24:01.688Z,9.73
2022-10-11T13:26:31.510Z,8.93
2022-10-11T13:28:59.026Z,8.23
2022-10-11T13:31:26.350Z,8.23
2022-10-11T13:33:56.009Z,6.53
2022-10-11T13:36:25.958Z,8.73
2022-10-11T13:39:01.382Z,9.45
2022-10-11T13:41:30.455Z,9.02
2022-10-11T13:43:59.299Z,11.95
2022-10-11T13:46:31.145Z,8.43
2022-10-11T13:49:05.701Z,8.93
2022-10-11T13:51:38.010Z,9.73
2022-10-11T13:54:13.627Z,7.97
2022-10-11T13:56:50.177Z,9.32
2022-10-11T13:59:23.361Z,10.03
2022-10-11T14:02:19.354Z,7.28
2022-10-11T14:04:46.881Z,11.20
2022-10-11T14:07:30.714Z,8.43
2022-10-11T14:09:57.596Z,9.45
2022-10-11T14:12:29.234Z,8.63
2022-10-11T14:14:55.969Z,9.95
2022-10-11T14:17:43.130Z,9.43
2022-10-11T14:20:17.494Z,10.63
2022-10-11T14:22:44.554Z,10.77
2022-10-11T14:25:12.082Z,8.70
2022-10-11T14:27:39.553Z,10.27
2022-10-11T14:30:25.444Z,9.23
2022-10-11T14:32:55.327Z,9.77
2022-10-11T14:35:28.032Z,7.53
2022-10-11T14:37:54.977Z,9.07
2022-10-11T14:40:28.874Z,9.88
2022-10-11T14:42:55.795Z,10.77
2022-10-11T14:45:23.581Z,6.65
2022-10-11T14:47:50.736Z,8.93
2022-10-11T14:50:51.975Z,7.57
2022-10-11T14:53:18.907Z,8.70
2022-10-11T14:55:45.752Z,8.75
2022-10-11T14:58:18.473Z,9.40
2022-10-11T15:00:46.150Z,9.40
2022-10-11T15:03:15.698Z,10.47
2022-10-11T15:05:43.909Z,11.30
2022-10-11T15:08:12.172Z,9.85
2022-10-11T15:10:41.181Z,9.07
2022-10-11T15:13:09.187Z,9.27
2022-10-11T15:18:58.099Z,7.43
2022-10-11T15:21:26.919Z,6.15
2022-10-11T15:23:54.888Z,7.40
2022-10-11T15:26:29.841Z,7.35
2022-10-11T15:28:57.734Z,8.23
2022-10-11T15:31:24.603Z,6.22
2022-10-11T15:33:52.441Z,8.30
2022-10-11T15:36:22.109Z,7.88
2022-10-11T15:38:49.769Z,7.65
2022-10-11T15:41:18.677Z,7.37
2022-10-11T15:43:46.592Z,7.63
2022-10-11T15:46:19.938Z,9.38
2022-10-11T15:48:47.201Z,10.35
2022-10-11T15:51:15.647Z,8.50
2022-10-11T15:53:45.457Z,8.37
2022-10-11T15:56:17.153Z,7.47
2022-10-11T15:58:44.493Z,9.95
2022-10-11T16:01:17.802Z,11.10
2022-10-11T16:03:45.495Z,9.70
2022-10-11T16:06:13.112Z,9.57
2022-10-11T16:08:40.496Z,9.80
2022-10-11T16:11:09.457Z,7.43
2022-10-11T16:13:36.640Z,7.15
2022-10-11T16:16:05.813Z,9.75
2022-10-11T16:22:39.816Z,9.98
2022-10-11T16:25:07.022Z,9.20
2022-10-11T16:27:34.106Z,7.70
2022-10-11T16:30:01.178Z,7.60
2022-10-11T16:32:29.101Z,8.10
2022-10-11T16:34:55.933Z,8.38
2022-10-11T16:37:22.748Z,6.18
2022-10-11T16:39:49.595Z,7.90
2022-10-11T16:42:16.425Z,7.75
2022-10-11T16:44:43.167Z,8.83
2022-10-11T16:47:09.949Z,8.73
2022-10-11T16:49:36.769Z,5.75
2022-10-11T16:52:03.694Z,7.03
2022-10-11T16:54:31.580Z,19.08
2022-10-11T16:56:59.427Z,15.77
2022-10-11T16:59:26.460Z,11.50
2022-10-11T17:01:53.338Z,11.05
2022-10-11T17:04:20.189Z,7.18
2022-10-11T17:06:47.117Z,6.43
2022-10-11T17:09:13.883Z,10.43
2022-10-11T17:11:40.755Z,11.20
2022-10-11T17:14:07.647Z,11.77
2022-10-11T17:16:35.569Z,10.27
2022-10-11T17:19:03.089Z,14.65
2022-10-11T17:21:29.875Z,18.17
2022-10-11T17:23:56.898Z,14.10
2022-10-11T17:26:26.221Z,16.40
2022-10-11T17:28:57.546Z,18.83
2022-10-11T17:31:25.300Z,12.45
2022-10-11T17:33:52.236Z,10.70
2022-10-11T17:36:23.772Z,12.13
2022-10-11T17:38:51.797Z,12.30
2022-10-11T17:41:19.431Z,13.20
2022-10-11T17:43:47.271Z,13.32
2022-10-11T17:46:16.016Z,14.47
2022-10-11T17:48:42.860Z,10.55
2022-10-11T17:51:15.989Z,10.88
2022-10-11T17:53:43.311Z,13.20
2022-10-11T17:56:13.092Z,12.10
2022-10-11T17:58:40.769Z,20.07
2022-10-11T18:01:11.112Z,13.10
2022-10-11T18:03:38.714Z,10.68
2022-10-11T18:06:14.009Z,13.18
2022-10-11T18:08:47.021Z,11.23
2022-10-11T18:11:16.504Z,9.40
2022-10-11T18:13:43.868Z,10.55
2022-10-11T18:16:11.488Z,11.65
2022-10-11T18:19:01.829Z,11.95
2022-10-11T18:21:34.034Z,11.35
2022-10-11T18:24:13.838Z,10.40
2022-10-11T18:26:40.650Z,13.77
2022-10-11T18:29:07.728Z,10.52
2022-10-11T18:31:35.139Z,9.07
2022-10-11T18:34:03.381Z,9.95
2022-10-11T18:36:31.958Z,10.93
2022-10-11T18:39:01.966Z,9.27
2022-10-11T18:41:33.027Z,9.70
2022-10-11T18:44:02.394Z,12.57
2022-10-11T18:46:29.729Z,10.45
2022-10-11T18:48:57.760Z,9.10
2022-10-11T18:51:27.027Z,9.85
2022-10-11T18:53:54.922Z,11.10
2022-10-11T18:56:23.207Z,10.10
2022-10-11T18:58:51.039Z,12.00
2022-10-11T19:01:24.015Z,14.13
2022-10-11T19:03:53.113Z,11.93
2022-10-11T19:06:26.085Z,16.67
2022-10-11T19:09:01.118Z,15.35
2022-10-11T19:11:28.465Z,12.48
2022-10-11T19:13:57.135Z,11.43
2022-10-11T19:16:24.580Z,14.02
2022-10-11T19:18:52.091Z,10.88
2022-10-11T19:21:19.845Z,12.63
2022-10-11T19:23:48.312Z,16.33
2022-10-11T19:26:20.959Z,15.00
2022-10-11T19:28:49.241Z,17.23
2022-10-11T19:31:16.415Z,14.02
2022-10-11T19:33:44.920Z,11.38
2022-10-11T19:36:13.906Z,13.90
2022-10-11T19:38:44.828Z,16.47
2022-10-11T19:41:13.424Z,15.38
2022-10-11T19:43:40.225Z,15.52
2022-10-11T19:46:09.802Z,14.25
2022-10-11T19:48:37.906Z,17.95
2022-10-11T19:51:11.035Z,15.87
2022-10-11T19:53:38.425Z,15.98
2022-10-11T19:56:08.441Z,13.90
2022-10-11T19:58:35.444Z,12.68
2022-10-11T20:01:05.257Z,12.80
2022-10-11T20:03:32.480Z,12.23
2022-10-11T20:06:04.540Z,13.38
2022-10-11T20:08:31.848Z,13.07
2022-10-11T20:10:59.644Z,12.52
2022-10-11T20:13:31.163Z,11.52
2022-10-11T20:16:07.115Z,11.57
2022-10-11T20:18:34.390Z,13.35
2022-10-11T20:21:04.551Z,12.85
2022-10-11T20:23:32.398Z,12.48
2022-10-11T20:26:03.759Z,12.60
2022-10-11T20:28:32.100Z,12.13
2022-10-11T20:31:02.635Z,12.75
2022-10-11T20:33:31.200Z,11.27
2022-10-11T20:36:07.210Z,11.48
2022-10-11T20:38:35.956Z,16.13
2022-10-11T20:41:08.063Z,17.63
2022-10-11T20:43:35.403Z,15.65
2022-10-11T20:46:15.562Z,16.73
2022-10-11T20:48:58.852Z,19.33
2022-10-11T20:51:29.332Z,14.77
2022-10-11T20:53:56.070Z,14.07
2022-10-11T20:56:23.122Z,15.55
2022-10-11T20:58:54.347Z,16.38
2022-10-11T21:01:26.967Z,15.05
2022-10-11T21:03:54.406Z,13.52
2022-10-11T21:06:21.230Z,13.63
2022-10-11T21:08:48.009Z,14.13
2022-10-11T21:11:14.914Z,11.93
2022-10-11T21:13:41.721Z,15.15
2022-10-11T21:16:15.909Z,11.75
2022-10-11T21:18:43.052Z,9.90
2022-10-11T21:21:14.377Z,13.35
2022-10-11T21:23:42.123Z,12.45
2022-10-11T21:26:12.656Z,13.73
2022-10-11T21:28:41.091Z,11.55
2022-10-11T21:31:10.568Z,14.87
2022-10-11T21:33:38.707Z,12.63
2022-10-11T21:36:10.653Z,12.98
2022-10-11T21:38:37.933Z,13.23
2022-10-11T21:41:07.562Z,15.13
2022-10-11T21:43:35.840Z,16.33
2022-10-11T21:46:14.481Z,22.25
2022-10-11T21:48:41.392Z,18.52
2022-10-11T21:53:46.409Z,13.48
2022-10-11T21:56:13.172Z,12.53
2022-10-11T21:58:40.024Z,15.00
2022-10-11T22:01:07.082Z,21.30
2022-10-11T22:03:34.030Z,17.90
2022-10-11T22:06:05.123Z,15.23
2022-10-11T22:08:32.497Z,16.33
2022-10-11T22:11:00.745Z,22.25
2022-10-11T22:13:30.045Z,17.90
2022-10-11T22:15:57.098Z,22.23
2022-10-11T22:18:24.951Z,20.38
2022-10-11T22:20:51.764Z,17.77
2022-10-11T22:23:19.130Z,11.82
2022-10-11T22:25:46.418Z,15.75
2022-10-11T22:28:13.340Z,13.52
2022-10-11T22:30:40.249Z,10.80
2022-10-11T22:33:07.035Z,17.47
2022-10-11T22:35:37.509Z,22.42
2022-10-11T22:38:05.907Z,20.88
2022-10-11T22:40:32.773Z,21.20
2022-10-11T22:42:59.646Z,23.65
2022-10-11T22:45:26.568Z,24.80
2022-10-11T22:47:53.309Z,18.27
2022-10-11T22:50:20.105Z,20.23
2022-10-11T22:52:47.109Z,25.70
2022-10-11T22:55:19.591Z,19.00
2022-10-11T22:57:46.900Z,17.17
2022-10-11T23:00:13.954Z,16.48
2022-10-11T23:02:40.695Z,17.60
2022-10-11T23:05:07.839Z,12.98
2022-10-11T23:07:34.651Z,13.18
2022-10-11T23:10:01.779Z,10.20
2022-10-11T23:12:28.613Z,11.45
2022-10-11T23:14:55.322Z,11.55
2022-10-11T23:17:22.087Z,13.55
2022-10-11T23:19:48.921Z,12.65
2022-10-11T23:22:16.100Z,10.80
2022-10-11T23:24:42.906Z,11.27
2022-10-11T23:27:10.006Z,10.23
2022-10-11T23:29:36.804Z,11.77
2022-10-11T23:32:03.650Z,12.23
2022-10-11T23:34:30.657Z,11.57
2022-10-11T23:36:57.597Z,12.73
2022-10-11T23:39:24.503Z,11.82
2022-10-11T23:41:51.337Z,11.65
2022-10-11T23:44:18.210Z,13.50
2022-10-11T23:46:45.096Z,22.73
2022-10-11T23:49:12.375Z,19.65
2022-10-11T23:51:39.624Z,17.67
2022-10-11T23:54:06.732Z,17.02
2022-10-11T23:56:33.788Z,22.00
2022-10-11T23:59:00.565Z,20.03
